Time;durP1;ratioP1;P1;durP2;ratioP2;P2;SDS_P1;SDS_P2;PMS_P1;PMS_P2;Temp;Humidity;BMP_temperature;BMP_pressure;BME280_temperature;BME280_humidity;BME280_pressure;Samples;Min_cycle;Max_cycle;Signal;HPM_P1;HPM_P2
2023/03/15 00:01:07;;;;;;;11.90;3.73;;;1.40;99.90;;;;;;4990425;28;20393;-82
2023/03/15 00:03:36;;;;;;;12.48;3.80;;;1.20;99.90;;;;;;4990794;28;20393;-82
2023/03/15 00:06:03;;;;;;;11.17;3.57;;;1.40;99.90;;;;;;4990478;28;20381;-82
2023/03/15 00:08:32;;;;;;;11.20;3.55;;;1.20;99.90;;;;;;4989824;28;20408;-82
2023/03/15 00:10:58;;;;;;;10.68;3.10;;;1.40;99.90;;;;;;4989373;28;20764;-82
2023/03/15 00:13:24;;;;;;;11.60;3.58;;;1.30;99.90;;;;;;4988726;28;20405;-82
2023/03/15 00:15:52;;;;;;;13.13;3.53;;;1.30;99.90;;;;;;4972066;28;21573;-82
2023/03/15 00:18:19;;;;;;;11.38;3.33;;;1.50;99.90;;;;;;4969142;28;20482;-82
2023/03/15 00:20:46;;;;;;;11.88;3.10;;;1.50;99.90;;;;;;4970244;28;21140;-83
2023/03/15 00:23:12;;;;;;;11.18;3.22;;;1.30;99.90;;;;;;4967693;28;21712;-82
2023/03/15 00:25:38;;;;;;;13.17;3.87;;;1.30;99.90;;;;;;4973823;28;20625;-82
2023/03/15 00:28:05;;;;;;;11.02;3.35;;;1.40;99.90;;;;;;4970214;28;20413;-82
2023/03/15 00:30:31;;;;;;;14.80;3.60;;;1.40;99.90;;;;;;4973110;28;20408;-82
2023/03/15 00:32:56;;;;;;;11.48;3.75;;;1.40;99.90;;;;;;4976219;28;20399;-82
2023/03/15 00:35:23;;;;;;;11.32;3.50;;;1.50;99.90;;;;;;4969576;28;20427;-82
2023/03/15 00:37:58;;;;;;;15.15;3.55;;;1.40;99.90;;;;;;4966847;28;20411;-82
2023/03/15 00:40:24;;;;;;;10.95;3.22;;;1.40;99.90;;;;;;5001944;28;20476;-82
2023/03/15 00:42:51;;;;;;;11.48;3.10;;;1.60;99.90;;;;;;4990291;28;20407;-82
2023/03/15 00:45:19;;;;;;;9.73;3.38;;;1.80;99.90;;;;;;5000319;28;20382;-83
2023/03/15 00:47:48;;;;;;;13.60;3.45;;;1.70;99.90;;;;;;5009823;28;20386;-82
2023/03/15 00:50:14;;;;;;;8.83;3.30;;;1.60;99.90;;;;;;5009249;28;20395;-82
2023/03/15 00:52:41;;;;;;;13.00;3.38;;;1.50;99.90;;;;;;5006815;28;20398;-82
2023/03/15 00:55:12;;;;;;;13.95;4.00;;;1.80;99.90;;;;;;4989551;28;20427;-82
2023/03/15 00:57:39;;;;;;;11.53;3.57;;;1.40;99.90;;;;;;5001380;28;20418;-81
2023/03/15 01:00:08;;;;;;;11.38;3.97;;;1.50;99.90;;;;;;5010367;28;20445;-81
2023/03/15 01:02:36;;;;;;;9.57;3.63;;;1.30;99.90;;;;;;5011384;28;20928;-81
2023/03/15 01:05:02;;;;;;;11.65;3.65;;;1.30;99.90;;;;;;5009962;28;20379;-83
2023/03/15 01:07:28;;;;;;;14.40;4.13;;;1.20;99.90;;;;;;5012638;28;20402;-82
2023/03/15 01:09:53;;;;;;;12.77;3.87;;;1.10;99.90;;;;;;5007813;28;20841;-82
2023/03/15 01:12:19;;;;;;;12.97;3.70;;;1.30;99.90;;;;;;4990092;28;20381;-83
2023/03/15 01:14:45;;;;;;;10.80;3.20;;;1.30;99.90;;;;;;4990374;28;20958;-82
2023/03/15 01:17:10;;;;;;;9.93;3.25;;;1.30;99.90;;;;;;4989674;28;20387;-82
2023/03/15 01:19:36;;;;;;;9.55;3.10;;;1.20;99.90;;;;;;4988466;28;20404;-83
2023/03/15 01:22:02;;;;;;;9.98;3.20;;;1.20;99.90;;;;;;4988896;28;20385;-81
2023/03/15 01:24:28;;;;;;;15.30;3.92;;;1.10;99.90;;;;;;4988732;28;20472;-82
2023/03/15 01:26:53;;;;;;;10.80;3.30;;;1.10;99.90;;;;;;4990232;28;20550;-82
2023/03/15 01:29:19;;;;;;;14.52;3.80;;;1.10;99.90;;;;;;4990266;28;20381;-82
2023/03/15 01:31:44;;;;;;;14.07;3.93;;;1.30;99.90;;;;;;5021446;28;20395;-83
2023/03/15 01:34:10;;;;;;;9.87;3.00;;;1.30;99.90;;;;;;5002101;28;20383;-83
2023/03/15 01:36:36;;;;;;;14.20;3.63;;;1.10;99.90;;;;;;5009039;28;20410;-82
2023/03/15 01:39:01;;;;;;;12.23;3.08;;;1.00;99.90;;;;;;4997743;28;20425;-82
2023/03/15 01:41:27;;;;;;;14.38;3.63;;;1.00;99.90;;;;;;4997202;28;20793;-82
2023/03/15 01:43:53;;;;;;;14.38;4.13;;;1.00;99.90;;;;;;4991950;28;20474;-82
2023/03/15 01:46:22;;;;;;;14.63;3.88;;;1.00;99.90;;;;;;4993233;28;20445;-83
2023/03/15 01:48:50;;;;;;;11.38;3.38;;;0.80;99.90;;;;;;5004613;28;20397;-82
2023/03/15 01:51:30;;;;;;;14.05;4.00;;;1.00;99.90;;;;;;5000908;28;20375;-82
2023/03/15 01:54:14;;;;;;;15.10;4.45;;;0.90;99.90;;;;;;5008497;28;20399;-82
2023/03/15 01:56:56;;;;;;;12.93;4.47;;;1.00;99.90;;;;;;5009447;28;20414;-82
2023/03/15 01:59:33;;;;;;;16.97;4.20;;;0.90;99.90;;;;;;5008522;28;20829;-83
2023/03/15 02:01:59;;;;;;;10.52;3.75;;;0.90;99.90;;;;;;5008420;28;20462;-83
2023/03/15 02:04:33;;;;;;;10.37;3.97;;;1.20;99.90;;;;;;5005239;28;20384;-82
2023/03/15 02:07:02;;;;;;;13.73;3.75;;;1.10;99.90;;;;;;4989794;28;20385;-82
2023/03/15 02:09:49;;;;;;;13.57;4.17;;;0.90;99.90;;;;;;4987889;28;20484;-82
2023/03/15 02:12:17;;;;;;;14.40;4.80;;;1.20;99.90;;;;;;4988332;28;20412;-81
2023/03/15 02:14:44;;;;;;;13.63;4.03;;;1.30;99.90;;;;;;4990827;28;20384;-82
2023/03/15 02:17:10;;;;;;;11.80;3.70;;;0.80;99.90;;;;;;4991028;28;20459;-82
2023/03/15 02:19:53;;;;;;;14.35;3.67;;;1.20;99.90;;;;;;5001692;28;20412;-82
2023/03/15 02:22:32;;;;;;;15.02;4.30;;;0.90;99.90;;;;;;5012274;28;20396;-80
2023/03/15 02:25:17;;;;;;;14.00;3.80;;;1.10;99.90;;;;;;5000395;28;20401;-82
2023/03/15 02:27:43;;;;;;;13.52;4.05;;;0.70;99.90;;;;;;4987975;28;20777;-82
2023/03/15 02:30:10;;;;;;;11.73;3.65;;;0.70;99.90;;;;;;5349119;23;20417;-82
2023/03/15 02:32:36;;;;;;;15.23;3.85;;;0.80;99.90;;;;;;5008979;28;20379;-82
2023/03/15 02:35:02;;;;;;;12.73;3.10;;;0.60;99.90;;;;;;5011304;28;20471;-82
2023/03/15 02:37:28;;;;;;;11.40;3.70;;;0.70;99.90;;;;;;5031200;28;20447;-84
2023/03/15 02:39:53;;;;;;;10.52;3.28;;;0.70;99.90;;;;;;5032439;28;20447;-84
2023/03/15 02:42:20;;;;;;;9.70;3.05;;;0.70;99.90;;;;;;5033122;28;20378;-83
2023/03/15 02:44:47;;;;;;;14.85;4.18;;;0.70;99.90;;;;;;5032646;28;20389;-83
2023/03/15 02:47:23;;;;;;;10.88;3.92;;;0.60;99.90;;;;;;5026063;28;20403;-82
2023/03/15 02:49:52;;;;;;;18.77;4.13;;;0.50;99.90;;;;;;5011869;28;20473;-81
2023/03/15 02:52:19;;;;;;;10.40;3.75;;;0.60;99.90;;;;;;5015336;28;20919;-82
2023/03/15 02:54:45;;;;;;;12.30;4.03;;;0.70;99.90;;;;;;5006199;28;20371;-83
2023/03/15 02:57:12;;;;;;;16.52;4.20;;;0.70;99.90;;;;;;5011054;28;20460;-83
2023/03/15 02:59:38;;;;;;;12.20;4.00;;;0.90;99.90;;;;;;5024178;28;20463;-82
2023/03/15 03:02:04;;;;;;;12.88;4.10;;;0.80;99.90;;;;;;5011367;28;20535;-82
2023/03/15 03:04:30;;;;;;;10.50;3.75;;;1.00;99.90;;;;;;5023790;28;20803;-82
2023/03/15 03:06:56;;;;;;;14.07;4.53;;;1.00;99.90;;;;;;5029630;28;20425;-82
2023/03/15 03:09:23;;;;;;;11.45;4.05;;;1.00;99.90;;;;;;5023912;28;20458;-83
2023/03/15 03:11:49;;;;;;;11.77;3.90;;;0.90;99.90;;;;;;5011737;28;20419;-83
2023/03/15 03:14:14;;;;;;;17.57;4.77;;;1.20;99.90;;;;;;5021051;28;20420;-83
2023/03/15 03:16:41;;;;;;;11.33;3.50;;;1.20;99.90;;;;;;5029866;28;21108;-83
2023/03/15 03:19:08;;;;;;;11.63;3.97;;;1.00;99.90;;;;;;5029922;28;20420;-83
2023/03/15 03:21:34;;;;;;;15.55;4.10;;;1.00;99.90;;;;;;5032268;28;20374;-83
2023/03/15 03:24:00;;;;;;;12.83;4.20;;;1.00;99.90;;;;;;5031687;28;20385;-83
2023/03/15 03:26:27;;;;;;;13.10;3.70;;;0.80;99.90;;;;;;5021428;28;20387;-83
2023/03/15 03:28:54;;;;;;;13.43;4.03;;;1.20;99.90;;;;;;5012140;28;20394;-83
2023/03/15 03:31:23;;;;;;;10.40;3.43;;;0.70;99.90;;;;;;5015103;28;20476;-83
2023/03/15 03:33:49;;;;;;;16.38;4.07;;;0.90;99.90;;;;;;5014371;28;20391;-82
2023/03/15 03:36:14;;;;;;;11.97;3.77;;;1.00;99.90;;;;;;5016480;28;20383;-82
2023/03/15 03:38:42;;;;;;;14.63;3.90;;;0.60;99.90;;;;;;5016550;28;20414;-83
2023/03/15 03:41:09;;;;;;;10.98;4.05;;;0.60;99.90;;;;;;5034282;28;20403;-83
2023/03/15 03:43:35;;;;;;;13.10;3.70;;;0.90;99.90;;;;;;5034905;28;20375;-82
2023/03/15 03:46:01;;;;;;;12.57;4.30;;;0.50;99.90;;;;;;5021898;28;20425;-83
2023/03/15 03:48:27;;;;;;;10.32;3.92;;;0.80;99.90;;;;;;5022997;28;20376;-83
2023/03/15 03:50:53;;;;;;;12.75;4.28;;;0.60;99.90;;;;;;5028392;28;20389;-83
2023/03/15 03:53:19;;;;;;;12.33;3.77;;;0.70;99.90;;;;;;5030237;28;20381;-83
2023/03/15 03:55:45;;;;;;;13.32;3.58;;;0.60;99.90;;;;;;5030116;28;20872;-83
2023/03/15 03:58:11;;;;;;;13.43;3.80;;;0.80;99.90;;;;;;5028446;28;20929;-82
2023/03/15 04:00:37;;;;;;;12.82;3.90;;;0.80;99.90;;;;;;5020983;28;20539;-82
2023/03/15 04:03:03;;;;;;;10.55;3.63;;;0.70;99.90;;;;;;5021810;28;20383;-83
2023/03/15 04:05:29;;;;;;;13.80;4.10;;;0.60;99.90;;;;;;5028837;28;20396;-83
2023/03/15 04:07:55;;;;;;;14.77;4.03;;;0.50;99.90;;;;;;5025367;28;20429;-83
2023/03/15 04:10:25;;;;;;;9.17;3.10;;;0.50;99.90;;;;;;5019801;28;20930;-83
2023/03/15 04:12:55;;;;;;;11.60;3.90;;;0.60;99.90;;;;;;5026970;28;20432;-83
2023/03/15 04:15:23;;;;;;;12.60;4.03;;;0.60;99.90;;;;;;5024031;28;20401;-83
2023/03/15 04:17:54;;;;;;;15.05;3.97;;;0.40;99.90;;;;;;5015995;28;20403;-83
2023/03/15 04:20:25;;;;;;;13.05;3.95;;;0.90;99.90;;;;;;5010556;28;20390;-81
2023/03/15 04:22:51;;;;;;;15.25;4.20;;;0.50;99.90;;;;;;5029441;28;20377;-81
2023/03/15 04:25:19;;;;;;;12.87;4.20;;;0.60;99.90;;;;;;5029896;28;20446;-82
2023/03/15 04:27:44;;;;;;;7.88;3.50;;;0.50;99.90;;;;;;5028148;28;20389;-82
2023/03/15 04:30:11;;;;;;;19.15;3.83;;;0.50;99.90;;;;;;5029432;28;20420;-82
2023/03/15 04:32:37;;;;;;;12.43;3.85;;;0.50;99.90;;;;;;5026691;28;20465;-82
2023/03/15 04:35:04;;;;;;;13.45;4.07;;;1.20;99.90;;;;;;5022989;28;20469;-82
2023/03/15 04:37:33;;;;;;;13.40;3.50;;;0.60;99.90;;;;;;5028160;28;20856;-83
2023/03/15 04:40:00;;;;;;;11.07;4.13;;;1.20;99.90;;;;;;5008650;28;20409;-83
2023/03/15 04:42:25;;;;;;;11.13;3.80;;;1.10;99.90;;;;;;4995387;28;20417;-82
2023/03/15 04:44:52;;;;;;;16.45;4.70;;;0.60;99.90;;;;;;4996995;28;20408;-83
2023/03/15 04:47:19;;;;;;;12.55;4.18;;;0.50;99.90;;;;;;4996632;28;20615;-82
2023/03/15 04:49:45;;;;;;;12.45;3.80;;;0.60;99.90;;;;;;4996367;28;20394;-83
2023/03/15 04:52:11;;;;;;;15.57;4.50;;;0.70;99.90;;;;;;4999230;28;20452;-82
2023/03/15 04:54:38;;;;;;;11.87;3.97;;;0.60;99.90;;;;;;5013928;28;21382;-82
2023/03/15 04:57:04;;;;;;;14.38;4.30;;;0.70;99.90;;;;;;5005241;28;20440;-82
2023/03/15 04:59:30;;;;;;;12.20;4.38;;;0.60;99.90;;;;;;4998202;28;20448;-82
2023/03/15 05:01:56;;;;;;;11.52;3.35;;;0.70;99.90;;;;;;4997344;28;20408;-84
2023/03/15 05:04:21;;;;;;;15.45;4.63;;;0.70;99.90;;;;;;4994993;28;20403;-83
2023/03/15 05:06:47;;;;;;;14.48;3.72;;;0.70;99.90;;;;;;5002429;28;20409;-83
2023/03/15 05:09:17;;;;;;;14.43;4.43;;;0.90;99.90;;;;;;5020685;28;21480;-83
2023/03/15 05:11:44;;;;;;;13.52;3.97;;;0.90;99.90;;;;;;5023515;28;20410;-83
2023/03/15 05:14:10;;;;;;;13.18;3.58;;;0.90;99.90;;;;;;5018607;28;20791;-82
2023/03/15 05:16:35;;;;;;;11.87;3.80;;;1.00;99.90;;;;;;5027747;28;20436;-83
2023/03/15 05:19:02;;;;;;;12.30;3.83;;;1.00;99.90;;;;;;5025004;28;20414;-83
2023/03/15 05:21:28;;;;;;;12.57;3.83;;;1.40;99.90;;;;;;5027379;28;20397;-83
2023/03/15 05:23:53;;;;;;;14.35;3.80;;;1.30;99.90;;;;;;5014733;28;20496;-83
2023/03/15 05:26:19;;;;;;;13.25;4.20;;;1.20;99.90;;;;;;5023492;28;20421;-83
2023/03/15 05:28:45;;;;;;;10.80;3.50;;;1.20;99.90;;;;;;5019944;28;20756;-83
2023/03/15 05:31:10;;;;;;;11.80;3.80;;;1.30;99.90;;;;;;5028460;28;20460;-82
2023/03/15 05:33:36;;;;;;;10.23;3.90;;;1.60;99.90;;;;;;5027327;28;20405;-82
2023/03/15 05:36:03;;;;;;;11.27;3.63;;;1.50;99.90;;;;;;5030764;28;20382;-83
2023/03/15 05:38:30;;;;;;;13.48;4.30;;;1.40;99.90;;;;;;5027737;28;20413;-83
2023/03/15 05:40:55;;;;;;;11.52;5.30;;;1.40;99.90;;;;;;5028166;28;20405;-82
2023/03/15 05:43:21;;;;;;;15.90;7.40;;;1.40;99.90;;;;;;5028793;28;20484;-82
2023/03/15 05:45:47;;;;;;;12.03;4.67;;;1.50;99.90;;;;;;5025286;28;20411;-82
2023/03/15 05:48:14;;;;;;;15.45;4.25;;;1.50;99.90;;;;;;5025335;28;20488;-81
2023/03/15 05:50:40;;;;;;;11.73;3.90;;;1.30;99.90;;;;;;5026563;28;20405;-81
2023/03/15 05:53:05;;;;;;;10.60;4.00;;;1.40;99.90;;;;;;5014739;28;20402;-83
2023/03/15 05:55:31;;;;;;;11.20;4.30;;;1.70;99.90;;;;;;5021820;28;20421;-82
2023/03/15 05:57:57;;;;;;;11.32;4.13;;;1.70;99.90;;;;;;5019635;28;20401;-82
2023/03/15 06:00:22;;;;;;;11.65;3.90;;;1.90;99.90;;;;;;5012533;28;20399;-83
2023/03/15 06:02:48;;;;;;;13.93;5.55;;;2.00;99.90;;;;;;5008312;28;20394;-83
2023/03/15 06:05:14;;;;;;;12.07;3.90;;;2.20;99.90;;;;;;5009292;28;20383;-84
2023/03/15 06:07:39;;;;;;;9.90;3.47;;;2.20;99.90;;;;;;5009837;28;21086;-84
2023/03/15 06:10:05;;;;;;;12.90;4.23;;;2.00;99.90;;;;;;5008322;28;20457;-84
2023/03/15 06:12:31;;;;;;;10.77;4.50;;;2.00;99.90;;;;;;5013921;28;20436;-84
2023/03/15 06:14:57;;;;;;;12.32;4.20;;;1.90;99.90;;;;;;5013428;28;20391;-84
2023/03/15 06:17:22;;;;;;;11.00;4.27;;;2.00;99.90;;;;;;5012268;28;20466;-85
2023/03/15 06:19:48;;;;;;;13.07;4.63;;;2.10;99.90;;;;;;5012573;28;20398;-85
2023/03/15 06:22:14;;;;;;;11.73;4.60;;;2.40;99.90;;;;;;5014968;28;20437;-83
2023/03/15 06:24:39;;;;;;;9.10;4.95;;;2.20;99.90;;;;;;5014886;28;20397;-85
2023/03/15 06:27:05;;;;;;;12.68;5.35;;;2.30;99.90;;;;;;5018953;28;20383;-85
2023/03/15 06:29:31;;;;;;;14.73;5.70;;;2.20;99.90;;;;;;5035331;28;20444;-84
2023/03/15 06:31:57;;;;;;;16.17;6.97;;;2.20;99.90;;;;;;5034826;28;20387;-85
2023/03/15 06:34:22;;;;;;;15.63;6.63;;;2.40;99.90;;;;;;5014698;28;20371;-84
2023/03/15 06:36:48;;;;;;;19.07;7.27;;;2.40;99.90;;;;;;5013407;28;20414;-86
2023/03/15 06:39:14;;;;;;;18.07;7.97;;;2.30;99.90;;;;;;5013225;28;20971;-84
2023/03/15 06:41:40;;;;;;;19.67;8.45;;;2.30;99.90;;;;;;5013665;28;20379;-84
2023/03/15 06:44:07;;;;;;;18.77;8.18;;;2.50;99.90;;;;;;5011657;28;20395;-84
2023/03/15 06:46:33;;;;;;;18.33;7.22;;;2.80;99.90;;;;;;5012666;28;20387;-85
2023/03/15 06:48:59;;;;;;;14.57;6.13;;;2.50;99.90;;;;;;5012578;28;20402;-85
2023/03/15 06:51:24;;;;;;;16.25;6.82;;;2.80;99.90;;;;;;5013267;28;20440;-85
2023/03/15 06:53:50;;;;;;;19.98;8.95;;;2.70;99.90;;;;;;5006783;28;20386;-84
2023/03/15 06:56:16;;;;;;;25.63;9.93;;;2.60;99.90;;;;;;5012233;28;20931;-86
2023/03/15 06:58:42;;;;;;;21.23;9.50;;;2.70;99.90;;;;;;5012461;28;20759;-84
2023/03/15 07:01:11;;;;;;;16.47;7.77;;;2.70;99.90;;;;;;5012843;28;20382;-84
2023/03/15 07:03:37;;;;;;;15.48;7.50;;;2.90;99.90;;;;;;5012614;28;20458;-84
2023/03/15 07:06:03;;;;;;;18.63;7.73;;;2.80;99.90;;;;;;5012800;28;20455;-84
2023/03/15 07:08:29;;;;;;;17.77;6.65;;;2.70;99.90;;;;;;5011859;28;20383;-84
2023/03/15 07:10:54;;;;;;;13.52;5.45;;;2.70;99.90;;;;;;5012933;28;20376;-84
2023/03/15 07:13:20;;;;;;;14.25;5.25;;;2.80;99.90;;;;;;5013799;28;20409;-84
2023/03/15 07:15:51;;;;;;;15.38;6.20;;;2.80;99.90;;;;;;5020308;28;20868;-82
2023/03/15 07:18:17;;;;;;;15.40;5.80;;;2.70;99.90;;;;;;5020437;28;20413;-82
2023/03/15 07:20:43;;;;;;;15.50;5.40;;;2.70;99.90;;;;;;5031272;28;20381;-83
2023/03/15 07:23:09;;;;;;;12.43;5.37;;;2.70;99.90;;;;;;5009779;28;20405;-83
2023/03/15 07:25:37;;;;;;;10.87;4.30;;;2.70;99.90;;;;;;5028653;28;20377;-83
2023/03/15 07:28:03;;;;;;;13.37;4.57;;;2.90;99.90;;;;;;5031900;28;20491;-84
2023/03/15 07:30:28;;;;;;;11.93;4.32;;;2.70;99.90;;;;;;5029313;28;20381;-84
2023/03/15 07:32:54;;;;;;;11.43;3.97;;;2.90;99.90;;;;;;5012994;28;20379;-84
2023/03/15 07:35:20;;;;;;;10.13;4.17;;;3.10;99.90;;;;;;5022884;28;20877;-83
2023/03/15 07:37:45;;;;;;;13.55;4.28;;;3.30;99.90;;;;;;5027156;28;20401;-85
2023/03/15 07:40:12;;;;;;;10.43;4.35;;;3.50;99.90;;;;;;5031474;28;20378;-82
2023/03/15 07:42:39;;;;;;;12.57;4.50;;;3.50;99.90;;;;;;5024757;28;20537;-83
2023/03/15 07:45:06;;;;;;;11.25;4.03;;;3.60;99.90;;;;;;5010756;28;20407;-82
2023/03/15 07:47:31;;;;;;;12.57;4.50;;;3.60;99.90;;;;;;5024478;28;20753;-83
2023/03/15 07:49:57;;;;;;;15.67;4.70;;;3.70;99.90;;;;;;5030819;28;20880;-83
2023/03/15 07:52:23;;;;;;;10.23;4.30;;;4.00;99.90;;;;;;5029257;28;21018;-83
2023/03/15 07:54:49;;;;;;;10.50;4.38;;;3.70;99.90;;;;;;5031524;28;20378;-83
2023/03/15 07:57:15;;;;;;;11.85;4.22;;;3.90;99.90;;;;;;5026814;28;20496;-84
2023/03/15 07:59:42;;;;;;;10.43;3.95;;;3.90;99.90;;;;;;5030929;28;20411;-84
2023/03/15 08:02:11;;;;;;;11.35;4.20;;;4.10;99.90;;;;;;5029703;28;20404;-83
2023/03/15 08:04:37;;;;;;;10.68;4.22;;;4.00;99.90;;;;;;5031108;28;20508;-83
2023/03/15 08:07:02;;;;;;;12.15;4.18;;;3.70;99.90;;;;;;5029413;28;20911;-83
2023/03/15 08:09:28;;;;;;;7.73;3.83;;;4.00;99.90;;;;;;5030888;28;20377;-83
2023/03/15 08:11:54;;;;;;;9.87;4.37;;;4.00;99.90;;;;;;5013541;28;20385;-84
2023/03/15 08:14:19;;;;;;;12.57;4.20;;;4.00;99.90;;;;;;5029567;28;20871;-84
2023/03/15 08:16:45;;;;;;;10.73;3.95;;;4.10;99.90;;;;;;5030593;28;20471;-83
2023/03/15 08:19:11;;;;;;;12.23;3.92;;;4.40;99.90;;;;;;5031123;28;20755;-85
2023/03/15 08:21:36;;;;;;;9.97;4.23;;;4.00;99.90;;;;;;5030521;28;20983;-83
2023/03/15 08:24:02;;;;;;;11.93;4.70;;;4.30;99.90;;;;;;5025707;28;20386;-84
2023/03/15 08:26:28;;;;;;;8.45;4.30;;;4.20;99.90;;;;;;5028328;28;20381;-85
2023/03/15 08:28:54;;;;;;;9.23;4.55;;;4.20;99.90;;;;;;5028633;28;21015;-83
2023/03/15 08:31:20;;;;;;;10.55;4.57;;;4.20;99.90;;;;;;5020388;28;20395;-83
2023/03/15 08:33:47;;;;;;;11.27;3.70;;;4.20;99.90;;;;;;5008623;28;20435;-83
2023/03/15 08:36:12;;;;;;;9.45;4.30;;;4.30;99.90;;;;;;5027205;28;20592;-83
2023/03/15 08:38:38;;;;;;;10.00;4.55;;;4.20;99.90;;;;;;5027477;28;20512;-83
2023/03/15 08:41:04;;;;;;;10.25;4.13;;;4.10;99.90;;;;;;5030142;28;20377;-83
2023/03/15 08:43:29;;;;;;;7.70;3.73;;;4.10;99.90;;;;;;5028846;28;20378;-84
2023/03/15 08:45:55;;;;;;;7.93;4.30;;;4.30;99.90;;;;;;5024329;28;20409;-83
2023/03/15 08:48:21;;;;;;;8.13;4.07;;;4.60;99.90;;;;;;5028401;28;20519;-84
2023/03/15 08:50:46;;;;;;;10.38;4.35;;;4.30;99.90;;;;;;5028062;28;20868;-83
2023/03/15 08:53:12;;;;;;;9.13;3.95;;;4.40;99.90;;;;;;5045167;28;20467;-83
2023/03/15 08:55:38;;;;;;;9.20;3.73;;;4.60;99.90;;;;;;5028945;28;20393;-83
2023/03/15 08:58:03;;;;;;;9.77;4.00;;;4.60;99.90;;;;;;5028504;28;20470;-83
2023/03/15 09:00:30;;;;;;;11.17;4.30;;;4.50;99.90;;;;;;5028288;28;20885;-83
2023/03/15 09:02:56;;;;;;;9.25;3.83;;;4.20;99.90;;;;;;5029384;28;20425;-83
2023/03/15 09:05:23;;;;;;;8.32;3.65;;;4.30;99.90;;;;;;5030630;28;20366;-82
2023/03/15 09:07:51;;;;;;;8.63;3.50;;;4.40;99.90;;;;;;5029573;28;20876;-83
2023/03/15 09:10:18;;;;;;;6.07;3.27;;;4.50;99.90;;;;;;5029655;28;20386;-83
2023/03/15 09:12:46;;;;;;;8.25;3.70;;;4.80;99.90;;;;;;5009204;28;20886;-83
2023/03/15 09:15:14;;;;;;;7.90;3.38;;;5.20;99.90;;;;;;5016839;28;20387;-84
2023/03/15 09:17:43;;;;;;;6.68;3.10;;;;;;;;;;5032588;28;20437;-84
2023/03/15 09:20:13;;;;;;;5.03;3.13;;;;;;;;;;5038973;28;20401;-84
2023/03/15 09:22:40;;;;;;;5.10;2.90;;;;;;;;;;5032257;28;20517;-83
2023/03/15 09:25:07;;;;;;;7.95;3.45;;;;;;;;;;5029557;28;20377;-83
2023/03/15 09:27:33;;;;;;;8.85;3.78;;;;;;;;;;5028457;28;20397;-83
2023/03/15 09:29:59;;;;;;;7.35;3.42;;;;;;;;;;5029360;28;20389;-83
2023/03/15 09:32:26;;;;;;;10.27;4.32;;;;;;;;;;5028469;28;20484;-84
2023/03/15 09:34:52;;;;;;;11.10;4.43;;;4.90;99.90;;;;;;5027641;28;20385;-83
2023/03/15 09:37:19;;;;;;;11.02;4.35;;;5.00;99.90;;;;;;5028587;28;20396;-84
2023/03/15 09:39:45;;;;;;;8.75;3.40;;;4.80;99.90;;;;;;5026618;28;20476;-84
2023/03/15 09:42:25;;;;;;;8.13;4.07;;;4.90;99.90;;;;;;5030228;28;20382;-84
2023/03/15 09:45:23;;;;;;;9.57;4.10;;;5.10;99.90;;;;;;5031037;28;20388;-84
2023/03/15 09:48:07;;;;;;;9.55;3.90;;;5.60;99.90;;;;;;5048646;28;20397;-83
2023/03/15 09:50:39;;;;;;;7.32;3.50;;;6.60;99.90;;;;;;5046648;28;20404;-82
2023/03/15 09:53:12;;;;;;;8.87;3.37;;;6.60;99.90;;;;;;5037059;28;20409;-83
2023/03/15 09:55:39;;;;;;;7.13;3.50;;;6.20;99.90;;;;;;5033244;28;20449;-82
2023/03/15 09:58:31;;;;;;;7.78;3.47;;;5.90;99.90;;;;;;5027883;28;20405;-82
2023/03/15 10:01:04;;;;;;;5.35;2.92;;;6.20;99.90;;;;;;5022428;28;20409;-83
2023/03/15 10:03:43;;;;;;;8.50;3.00;;;6.10;99.90;;;;;;5013404;28;20401;-83
2023/03/15 10:06:27;;;;;;;9.63;3.13;;;5.70;99.90;;;;;;5024972;28;20385;-83
2023/03/15 10:08:57;;;;;;;7.57;3.77;;;5.50;99.90;;;;;;5028779;28;20378;-84
2023/03/15 10:11:45;;;;;;;8.57;3.42;;;5.50;99.90;;;;;;5012918;28;20389;-84
2023/03/15 10:14:24;;;;;;;7.47;2.72;;;6.30;99.90;;;;;;5013074;28;20392;-83
2023/03/15 10:16:51;;;;;;;7.90;2.95;;;7.40;99.90;;;;;;5030131;28;20374;-82
2023/03/15 10:19:30;;;;;;;7.07;3.08;;;7.50;99.90;;;;;;5022026;28;20469;-79
2023/03/15 10:22:07;;;;;;;6.68;2.90;;;6.90;99.90;;;;;;5013709;28;20397;-84
2023/03/15 10:24:54;;;;;;;7.00;3.28;;;6.70;99.90;;;;;;5017313;28;20406;-84
2023/03/15 10:27:27;;;;;;;7.25;3.30;;;6.60;99.90;;;;;;5021612;28;20396;-84
2023/03/15 10:29:56;;;;;;;8.73;3.30;;;6.50;99.90;;;;;;5009729;28;20398;-84
2023/03/15 10:32:26;;;;;;;8.82;4.18;;;6.70;99.90;;;;;;5008675;28;20470;-83
2023/03/15 10:34:55;;;;;;;7.13;2.85;;;7.60;99.90;;;;;;5008520;28;21048;-83
2023/03/15 10:37:22;;;;;;;6.78;2.60;;;8.30;99.90;;;;;;5007827;28;20441;-82
2023/03/15 10:39:53;;;;;;;7.07;2.88;;;9.00;99.90;;;;;;5019502;28;20471;-83
2023/03/15 10:42:31;;;;;;;7.70;3.20;;;8.70;99.90;;;;;;5027973;28;20382;-83
2023/03/15 10:44:59;;;;;;;6.43;2.90;;;8.80;99.90;;;;;;5024564;28;20500;-83
2023/03/15 10:47:25;;;;;;;5.95;2.50;;;9.40;99.90;;;;;;5008462;28;20490;-83
2023/03/15 10:49:57;;;;;;;5.38;2.50;;;10.20;99.90;;;;;;5027558;28;20385;-83
2023/03/15 10:52:37;;;;;;;3.83;2.00;;;10.40;99.90;;;;;;5022890;28;20403;-83
2023/03/15 10:55:10;;;;;;;4.70;2.30;;;9.80;99.90;;;;;;5028134;28;20374;-83
2023/03/15 10:57:39;;;;;;;4.85;2.50;;;8.90;99.90;;;;;;5026819;28;20374;-82
2023/03/15 11:00:25;;;;;;;5.07;2.63;;;8.10;99.90;;;;;;5023411;28;20381;-83
2023/03/15 11:03:02;;;;;;;5.40;2.53;;;7.60;99.90;;;;;;5028045;28;20752;-83
2023/03/15 11:05:39;;;;;;;7.95;3.35;;;7.10;99.90;;;;;;5023692;28;20398;-84
2023/03/15 11:08:14;;;;;;;6.00;2.70;;;6.80;99.90;;;;;;5011609;28;20387;-84
2023/03/15 11:10:41;;;;;;;6.05;2.65;;;7.70;99.90;;;;;;5019775;28;20373;-84
2023/03/15 11:13:19;;;;;;;5.80;2.40;;;8.60;99.90;;;;;;5030492;28;20385;-83
2023/03/15 11:16:04;;;;;;;6.05;2.30;;;10.00;99.90;;;;;;5031390;28;20492;-84
2023/03/15 11:18:44;;;;;;;6.57;2.42;;;10.10;99.90;;;;;;5026426;28;20476;-83
2023/03/15 11:21:13;;;;;;;4.45;2.03;;;10.80;99.90;;;;;;5031627;28;20380;-83
2023/03/15 11:23:49;;;;;;;5.95;2.13;;;11.10;99.90;;;;;;5026150;28;20916;-82
2023/03/15 11:26:24;;;;;;;3.95;2.20;;;11.20;99.90;;;;;;5025953;28;20387;-83
2023/03/15 11:29:19;;;;;;;6.10;2.47;;;10.80;99.90;;;;;;5011841;28;20379;-82
2023/03/15 11:31:46;;;;;;;6.45;2.42;;;10.30;99.90;;;;;;5029732;28;20484;-81
2023/03/15 11:34:32;;;;;;;6.63;2.83;;;9.00;99.90;;;;;;5027722;28;20461;-82
2023/03/15 11:37:04;;;;;;;6.05;2.63;;;8.10;99.90;;;;;;5028764;28;21096;-82
2023/03/15 11:40:15;;;;;;;5.43;2.55;;;7.70;99.90;;;;;;5029235;28;20404;-83
2023/03/15 11:43:02;;;;;;;6.72;2.60;;;7.70;99.90;;;;;;4976072;28;20841;-83
2023/03/15 11:45:49;;;;;;;8.23;3.00;;;8.20;99.90;;;;;;5031251;28;20404;-83
2023/03/15 11:48:25;;;;;;;6.13;3.10;;;8.20;99.90;;;;;;5031284;28;20443;-82
2023/03/15 11:50:54;;;;;;;5.50;2.80;;;8.30;99.90;;;;;;5031264;28;20420;-82
2023/03/15 11:53:22;;;;;;;10.00;3.10;;;8.50;99.90;;;;;;5031939;28;20443;-82
2023/03/15 11:55:52;;;;;;;6.03;2.70;;;8.40;99.90;;;;;;5029776;28;20381;-82
2023/03/15 11:58:41;;;;;;;8.65;2.88;;;8.10;99.90;;;;;;5029553;28;20912;-82
2023/03/15 12:01:10;;;;;;;8.98;2.90;;;7.70;99.90;;;;;;5030953;28;20393;-82
2023/03/15 12:03:43;;;;;;;7.82;2.55;;;7.50;99.90;;;;;;5031313;28;20388;-82
2023/03/15 12:06:17;;;;;;;8.32;2.83;;;7.80;99.90;;;;;;5052534;28;20385;-82
2023/03/15 12:08:50;;;;;;;12.05;3.25;;;8.60;99.90;;;;;;5051131;28;20406;-82
2023/03/15 12:11:22;;;;;;;8.55;2.55;;;8.90;99.90;;;;;;5031722;28;20381;-82
2023/03/15 12:14:05;;;;;;;7.88;2.90;;;8.80;99.90;;;;;;5030750;28;20378;-83
2023/03/15 12:16:47;;;;;;;8.00;2.40;;;8.40;99.90;;;;;;5028981;28;20389;-82
2023/03/15 12:19:19;;;;;;;7.73;2.43;;;8.40;99.90;;;;;;5027946;28;21150;-84
2023/03/15 12:21:55;;;;;;;5.07;2.22;;;8.70;99.90;;;;;;5019043;28;20397;-82
2023/03/15 12:24:39;;;;;;;7.38;2.45;;;8.80;99.90;;;;;;5007996;28;20549;-82
2023/03/15 12:27:17;;;;;;;7.85;3.15;;;8.50;99.90;;;;;;5009647;28;20403;-82
2023/03/15 12:29:45;;;;;;;7.10;2.30;;;8.00;99.90;;;;;;5027518;28;20748;-84
2023/03/15 12:32:14;;;;;;;7.72;2.28;;;7.60;99.90;;;;;;5027726;28;20374;-85
2023/03/15 12:34:53;;;;;;;10.52;2.55;;;7.40;99.90;;;;;;5041616;28;20402;-83
2023/03/15 12:37:40;;;;;;;7.72;2.38;;;7.50;99.90;;;;;;5028294;28;20420;-83
2023/03/15 12:40:17;;;;;;;11.18;3.10;;;7.80;99.90;;;;;;5024446;28;20430;-84
2023/03/15 12:42:46;;;;;;;9.45;2.72;;;8.00;99.90;;;;;;5008953;28;20456;-83
2023/03/15 12:45:15;;;;;;;7.20;2.40;;;8.00;99.90;;;;;;5008907;28;20446;-83
2023/03/15 12:47:46;;;;;;;7.75;2.42;;;8.20;99.90;;;;;;5002590;28;20473;-84
2023/03/15 12:50:37;;;;;;;6.27;2.47;;;8.50;99.90;;;;;;5007493;28;20399;-83
2023/03/15 12:53:28;;;;;;;6.33;2.60;;;8.70;99.90;;;;;;4978300;28;20397;-82
2023/03/15 12:55:55;;;;;;;7.65;2.65;;;8.50;99.90;;;;;;5010982;28;20389;-83
2023/03/15 12:58:28;;;;;;;5.55;2.50;;;8.30;99.90;;;;;;5011592;28;20403;-83
2023/03/15 13:00:54;;;;;;;7.03;2.20;;;8.10;99.90;;;;;;5008643;28;20394;-83
2023/03/15 13:03:22;;;;;;;7.17;2.43;;;8.00;99.90;;;;;;5003249;28;20388;-83